Time;durP1;ratioP1;P1;durP2;ratioP2;P2;SDS_P1;SDS_P2;PMS_P1;PMS_P2;Temp;Humidity;BMP_temperature;BMP_pressure;BME280_temperature;BME280_humidity;BME280_pressure;Samples;Min_cycle;Max_cycle;Signal;HPM_P1;HPM_P2
2023/06/02 00:00:49;;;;;;;3.60;3.05;;;17.20;61.90;;;;;;5000327;28;20045;-62
2023/06/02 00:03:15;;;;;;;3.97;2.97;;;17.10;62.10;;;;;;5004111;28;20120;-62
2023/06/02 00:05:41;;;;;;;5.57;3.40;;;17.10;62.20;;;;;;5000331;28;20047;-62
2023/06/02 00:08:07;;;;;;;3.30;3.00;;;17.00;62.20;;;;;;5000657;28;20414;-62
2023/06/02 00:10:32;;;;;;;4.97;3.28;;;17.00;62.30;;;;;;5001567;28;20121;-62
2023/06/02 00:12:58;;;;;;;6.18;3.38;;;17.00;62.40;;;;;;5003676;28;20421;-63
2023/06/02 00:15:23;;;;;;;4.15;2.83;;;17.00;62.40;;;;;;5002335;28;20104;-63
2023/06/02 00:17:49;;;;;;;7.97;3.35;;;17.00;62.30;;;;;;5000763;28;20033;-61
2023/06/02 00:20:17;;;;;;;4.32;3.50;;;17.00;62.60;;;;;;4999842;28;20135;-61
2023/06/02 00:22:46;;;;;;;14.50;3.53;;;16.90;62.60;;;;;;4999949;28;20042;-62
2023/06/02 00:25:12;;;;;;;4.57;3.05;;;17.00;62.60;;;;;;4999282;28;20046;-62
2023/06/02 00:27:37;;;;;;;3.30;3.00;;;16.90;62.30;;;;;;5003045;28;20041;-62
2023/06/02 00:30:03;;;;;;;5.15;3.10;;;16.90;62.40;;;;;;5000080;28;20037;-62
2023/06/02 00:32:29;;;;;;;4.43;3.20;;;16.90;62.50;;;;;;4999738;28;20084;-62
2023/06/02 00:34:55;;;;;;;5.55;3.10;;;16.90;62.60;;;;;;4999471;28;20030;-62
2023/06/02 00:37:20;;;;;;;3.28;2.80;;;16.90;62.70;;;;;;5000701;28;20030;-61
2023/06/02 00:39:46;;;;;;;3.83;3.08;;;16.90;62.70;;;;;;5000121;28;20037;-62
2023/06/02 00:42:11;;;;;;;3.75;3.05;;;16.90;62.60;;;;;;4999307;28;20624;-62
2023/06/02 00:44:37;;;;;;;4.85;2.85;;;16.90;62.50;;;;;;5003985;28;20056;-62
2023/06/02 00:47:03;;;;;;;4.22;3.60;;;16.90;62.70;;;;;;5000582;28;20565;-62
2023/06/02 00:49:28;;;;;;;4.15;3.00;;;16.90;62.80;;;;;;4999376;28;20034;-62
2023/06/02 00:51:54;;;;;;;5.20;3.22;;;16.90;62.90;;;;;;5000442;28;20506;-62
2023/06/02 00:54:20;;;;;;;3.80;2.85;;;16.80;63.00;;;;;;5000593;28;20061;-62
2023/06/02 00:56:46;;;;;;;4.55;3.25;;;16.80;62.90;;;;;;4999241;28;20117;-62
2023/06/02 00:59:13;;;;;;;3.88;3.30;;;16.70;63.00;;;;;;5000193;28;20469;-62
2023/06/02 01:01:38;;;;;;;4.07;3.28;;;16.60;63.30;;;;;;4999773;28;20184;-62
2023/06/02 01:04:07;;;;;;;5.20;3.45;;;16.60;63.40;;;;;;4998434;28;20116;-62
2023/06/02 01:06:35;;;;;;;6.65;3.40;;;16.60;63.40;;;;;;4998044;28;20461;-62
2023/06/02 01:09:04;;;;;;;3.88;3.38;;;16.50;63.70;;;;;;4997629;28;20409;-62
2023/06/02 01:11:30;;;;;;;3.78;3.30;;;16.40;63.80;;;;;;5001195;28;20745;-62
2023/06/02 01:13:55;;;;;;;3.42;3.08;;;16.40;63.80;;;;;;5002852;28;20037;-62
2023/06/02 01:16:21;;;;;;;5.70;3.40;;;16.40;63.80;;;;;;5002290;28;20034;-62
2023/06/02 01:18:49;;;;;;;7.10;3.30;;;16.30;64.00;;;;;;5002006;28;20042;-62
2023/06/02 01:21:22;;;;;;;6.35;3.28;;;16.30;64.20;;;;;;5001160;28;20343;-61
2023/06/02 01:23:51;;;;;;;4.18;3.22;;;16.30;64.30;;;;;;4999969;28;20034;-62
2023/06/02 01:26:17;;;;;;;3.90;3.60;;;16.30;64.20;;;;;;5000460;28;20053;-62
2023/06/02 01:28:42;;;;;;;5.47;3.10;;;16.30;64.00;;;;;;5001487;28;20524;-62
2023/06/02 01:31:13;;;;;;;5.28;3.30;;;16.30;64.00;;;;;;5001135;28;20049;-62
2023/06/02 01:33:49;;;;;;;4.32;3.05;;;16.30;64.30;;;;;;5001162;28;20112;-62
2023/06/02 01:36:19;;;;;;;3.78;3.30;;;16.30;65.20;;;;;;4998749;28;20548;-62
2023/06/02 01:38:48;;;;;;;3.90;3.47;;;16.20;64.00;;;;;;5000395;28;20046;-62
2023/06/02 01:41:16;;;;;;;3.60;3.30;;;16.30;64.10;;;;;;5003202;28;20038;-61
2023/06/02 01:43:42;;;;;;;5.50;3.80;;;16.20;64.10;;;;;;5002917;28;20080;-62
2023/06/02 01:46:10;;;;;;;4.57;3.28;;;16.20;64.10;;;;;;5001088;28;20038;-61
2023/06/02 01:48:35;;;;;;;4.25;3.28;;;16.20;64.10;;;;;;4999510;28;20037;-63
2023/06/02 01:51:02;;;;;;;4.32;3.38;;;16.20;64.00;;;;;;5000569;28;20120;-62
2023/06/02 01:53:27;;;;;;;6.82;3.03;;;16.20;64.00;;;;;;4997916;28;20123;-62
2023/06/02 01:55:54;;;;;;;4.60;3.22;;;16.20;64.00;;;;;;5002554;28;20497;-61
2023/06/02 01:58:20;;;;;;;6.03;3.25;;;16.20;64.10;;;;;;4999741;28;20037;-62
2023/06/02 02:00:46;;;;;;;4.22;3.17;;;16.10;63.90;;;;;;4999600;28;20147;-62
2023/06/02 02:03:12;;;;;;;5.63;3.35;;;16.10;64.00;;;;;;4999994;28;20050;-62
2023/06/02 02:05:38;;;;;;;3.50;3.20;;;16.00;64.30;;;;;;5002486;28;20045;-62
2023/06/02 02:08:04;;;;;;;3.80;3.30;;;16.00;64.30;;;;;;4998958;28;20040;-62
2023/06/02 02:10:30;;;;;;;5.15;3.20;;;15.90;64.50;;;;;;4998283;28;20038;-63
2023/06/02 02:12:56;;;;;;;5.07;3.42;;;15.90;64.60;;;;;;4999106;28;20100;-61
2023/06/02 02:15:21;;;;;;;3.60;3.30;;;15.90;64.80;;;;;;5003348;28;20048;-62
2023/06/02 02:17:47;;;;;;;6.57;3.08;;;15.80;64.90;;;;;;5000151;28;20489;-62
2023/06/02 02:20:16;;;;;;;5.35;3.60;;;15.70;65.10;;;;;;5002916;28;20306;-62
2023/06/02 02:22:43;;;;;;;5.28;3.30;;;15.60;65.30;;;;;;5004740;28;20058;-62
2023/06/02 02:25:08;;;;;;;5.32;3.30;;;15.60;65.50;;;;;;5005483;28;20112;-62
2023/06/02 02:27:35;;;;;;;3.78;3.10;;;15.50;65.70;;;;;;5005738;28;20065;-62
2023/06/02 02:30:02;;;;;;;4.95;3.15;;;15.40;65.90;;;;;;5004047;28;20038;-62
2023/06/02 02:32:29;;;;;;;4.20;3.50;;;15.40;66.10;;;;;;5002797;28;20042;-62
2023/06/02 02:34:54;;;;;;;3.25;2.92;;;15.30;66.20;;;;;;5000758;28;20034;-62
2023/06/02 02:37:20;;;;;;;21.17;3.80;;;15.30;66.40;;;;;;4998435;28;20045;-62
2023/06/02 02:39:45;;;;;;;4.85;3.08;;;15.20;66.30;;;;;;4994345;28;20038;-61
2023/06/02 02:42:11;;;;;;;3.88;3.20;;;15.20;66.40;;;;;;5002291;28;20121;-62
2023/06/02 02:44:37;;;;;;;4.38;3.15;;;15.10;66.60;;;;;;4999895;28;20936;-63
2023/06/02 02:47:02;;;;;;;4.78;3.45;;;15.10;66.70;;;;;;5002415;28;20112;-62
2023/06/02 02:49:28;;;;;;;4.28;3.22;;;15.00;66.90;;;;;;4998664;28;20038;-62
2023/06/02 02:51:54;;;;;;;3.38;3.00;;;14.90;67.10;;;;;;5001682;28;20422;-62
2023/06/02 02:54:20;;;;;;;6.10;3.10;;;14.80;68.10;;;;;;4997107;28;20034;-62
2023/06/02 02:56:46;;;;;;;5.60;3.22;;;14.80;67.70;;;;;;5001929;28;20041;-62
2023/06/02 02:59:16;;;;;;;4.38;3.15;;;14.70;67.90;;;;;;5003260;28;20192;-62
2023/06/02 03:01:44;;;;;;;5.38;3.20;;;14.70;68.00;;;;;;5001186;28;21604;-62
2023/06/02 03:04:18;;;;;;;4.53;3.30;;;14.60;68.10;;;;;;5000123;28;20287;-61
2023/06/02 03:06:45;;;;;;;5.53;3.00;;;14.60;68.70;;;;;;4999153;28;20037;-62
2023/06/02 03:09:11;;;;;;;3.92;3.22;;;14.70;68.30;;;;;;5006294;28;20034;-62
2023/06/02 03:11:37;;;;;;;7.18;3.33;;;14.70;68.30;;;;;;5005806;28;20137;-62
2023/06/02 03:14:02;;;;;;;5.22;2.90;;;14.70;68.30;;;;;;5004617;28;20098;-62
2023/06/02 03:16:28;;;;;;;4.63;3.00;;;14.70;68.30;;;;;;5004159;28;20046;-63
2023/06/02 03:18:57;;;;;;;3.22;2.63;;;14.70;68.20;;;;;;5004764;28;20037;-62
2023/06/02 03:21:23;;;;;;;4.78;3.50;;;14.70;68.30;;;;;;5004479;28;20448;-62
2023/06/02 03:23:49;;;;;;;3.75;3.15;;;14.70;68.00;;;;;;5002698;28;20045;-62
2023/06/02 03:26:16;;;;;;;3.50;3.20;;;14.70;68.80;;;;;;5003971;28;20042;-62
2023/06/02 03:28:43;;;;;;;4.32;3.30;;;14.70;68.00;;;;;;5004992;28;20044;-62
2023/06/02 03:31:09;;;;;;;3.67;3.30;;;14.60;68.00;;;;;;5001088;28;20428;-63
2023/06/02 03:33:35;;;;;;;4.15;3.10;;;14.60;68.30;;;;;;5003923;28;20112;-62
2023/06/02 03:36:01;;;;;;;3.45;3.15;;;14.50;68.40;;;;;;5000779;28;20029;-62
2023/06/02 03:38:27;;;;;;;3.85;3.47;;;14.40;68.60;;;;;;5000664;28;20072;-62
2023/06/02 03:40:52;;;;;;;5.40;3.55;;;14.40;68.80;;;;;;5001181;28;20058;-62
2023/06/02 03:43:18;;;;;;;5.78;3.38;;;14.30;69.00;;;;;;5002273;28;20037;-61
2023/06/02 03:45:45;;;;;;;6.85;3.30;;;14.30;69.20;;;;;;5000468;28;20060;-63
2023/06/02 03:48:11;;;;;;;3.92;3.05;;;14.30;69.30;;;;;;5001711;28;20034;-62
2023/06/02 03:50:38;;;;;;;3.88;3.00;;;14.20;69.20;;;;;;5003484;28;20049;-62
2023/06/02 03:53:05;;;;;;;3.97;3.38;;;14.20;69.40;;;;;;5001974;28;20044;-62
2023/06/02 03:55:30;;;;;;;6.15;3.50;;;14.10;69.50;;;;;;5001929;28;20700;-62
2023/06/02 03:57:56;;;;;;;3.45;3.15;;;14.10;69.70;;;;;;5002838;28;20059;-61
2023/06/02 04:00:21;;;;;;;3.80;2.92;;;14.10;69.70;;;;;;5001452;28;20033;-62
2023/06/02 04:02:47;;;;;;;6.18;3.38;;;14.10;69.80;;;;;;5002049;28;20524;-61
2023/06/02 04:05:14;;;;;;;4.70;3.30;;;14.10;69.90;;;;;;5001497;28;22065;-62
2023/06/02 04:07:40;;;;;;;4.28;3.17;;;14.10;70.00;;;;;;5000217;28;20121;-62
2023/06/02 04:10:06;;;;;;;3.40;3.10;;;14.00;70.00;;;;;;5000035;28;20037;-61
2023/06/02 04:12:32;;;;;;;4.57;3.55;;;14.00;70.20;;;;;;4999446;28;20042;-62
2023/06/02 04:14:58;;;;;;;3.50;3.20;;;14.00;70.30;;;;;;5002012;28;20040;-62
2023/06/02 04:17:25;;;;;;;6.72;3.42;;;14.00;70.40;;;;;;5003037;28;20038;-62
2023/06/02 04:19:52;;;;;;;5.65;3.40;;;14.00;70.40;;;;;;5002358;28;20647;-62
2023/06/02 04:22:18;;;;;;;4.13;3.50;;;14.00;70.40;;;;;;4999427;28;20887;-62
2023/06/02 04:24:45;;;;;;;5.40;3.35;;;14.00;70.60;;;;;;5001883;28;20045;-62
2023/06/02 04:27:10;;;;;;;5.70;3.30;;;14.00;70.70;;;;;;4997128;28;20117;-61
2023/06/02 04:29:37;;;;;;;6.18;3.65;;;14.00;70.70;;;;;;4991724;28;20038;-62
2023/06/02 04:32:03;;;;;;;5.20;3.30;;;13.90;70.80;;;;;;4994994;28;20033;-62
2023/06/02 04:34:31;;;;;;;5.47;3.47;;;13.90;71.00;;;;;;4996753;28;20046;-62
2023/06/02 04:36:57;;;;;;;4.10;3.17;;;13.90;71.30;;;;;;4997423;28;20092;-62
2023/06/02 04:39:23;;;;;;;5.47;3.50;;;13.90;71.50;;;;;;5002523;28;20041;-62
2023/06/02 04:41:49;;;;;;;4.10;3.45;;;14.00;71.70;;;;;;5001547;28;20048;-62
2023/06/02 04:44:16;;;;;;;4.43;3.43;;;14.00;71.80;;;;;;4997591;28;20048;-62
2023/06/02 04:46:42;;;;;;;6.43;3.45;;;14.10;72.00;;;;;;5001321;28;20025;-62
2023/06/02 04:49:09;;;;;;;4.35;3.47;;;14.10;72.00;;;;;;4996737;28;20034;-61
2023/06/02 04:51:35;;;;;;;5.88;3.38;;;14.20;72.10;;;;;;4997947;28;20046;-63
2023/06/02 04:54:01;;;;;;;3.80;3.33;;;14.30;72.10;;;;;;4999341;28;20034;-62
2023/06/02 04:56:27;;;;;;;3.88;3.28;;;14.30;72.00;;;;;;4999546;28;20030;-61
2023/06/02 04:58:53;;;;;;;5.00;3.22;;;14.40;72.10;;;;;;4998976;28;20026;-62
2023/06/02 05:01:19;;;;;;;6.80;3.65;;;14.50;73.10;;;;;;4996409;28;20086;-62
2023/06/02 05:03:45;;;;;;;5.95;3.70;;;14.50;72.30;;;;;;4999280;28;20041;-63
2023/06/02 05:06:10;;;;;;;4.95;3.58;;;14.60;72.30;;;;;;4999362;28;22383;-63
2023/06/02 05:08:36;;;;;;;7.57;4.18;;;14.70;72.30;;;;;;4999473;28;20038;-62
2023/06/02 05:11:02;;;;;;;5.78;3.95;;;14.80;72.30;;;;;;4999075;28;20038;-62
2023/06/02 05:13:28;;;;;;;4.03;3.53;;;14.80;72.20;;;;;;4997098;28;20309;-62
2023/06/02 05:15:55;;;;;;;5.22;3.85;;;14.90;71.80;;;;;;4997860;28;20046;-62
2023/06/02 05:18:21;;;;;;;5.40;3.80;;;14.90;71.10;;;;;;4998234;28;20092;-62
2023/06/02 05:20:47;;;;;;;4.25;3.80;;;15.00;70.70;;;;;;4999266;28;20045;-61
2023/06/02 05:23:12;;;;;;;5.45;3.95;;;15.00;70.60;;;;;;4999346;28;20583;-61
2023/06/02 05:25:39;;;;;;;6.10;3.67;;;15.20;70.90;;;;;;4999443;28;20069;-62
2023/06/02 05:28:05;;;;;;;5.70;3.78;;;15.20;71.00;;;;;;4999939;28;20069;-61
2023/06/02 05:30:30;;;;;;;4.43;3.83;;;15.40;70.70;;;;;;4997202;28;20121;-62
2023/06/02 05:32:56;;;;;;;4.38;3.72;;;15.50;70.40;;;;;;4999501;28;20045;-62
2023/06/02 05:35:22;;;;;;;3.95;3.55;;;15.60;70.00;;;;;;4999868;28;20046;-63
2023/06/02 05:37:47;;;;;;;6.97;3.72;;;15.70;69.50;;;;;;5000424;28;20042;-62
2023/06/02 05:40:13;;;;;;;4.03;3.63;;;15.80;69.20;;;;;;4996192;28;20136;-63
2023/06/02 05:42:39;;;;;;;4.78;3.58;;;15.90;68.20;;;;;;4994455;28;20243;-61
2023/06/02 05:45:06;;;;;;;6.75;4.00;;;16.00;67.30;;;;;;4995621;28;20128;-62
2023/06/02 05:47:32;;;;;;;4.55;3.83;;;16.10;67.40;;;;;;4996191;28;21270;-62
2023/06/02 05:49:58;;;;;;;5.05;3.60;;;16.20;66.70;;;;;;4996524;28;20037;-62
2023/06/02 05:52:24;;;;;;;5.60;3.83;;;16.30;66.60;;;;;;4994859;28;20258;-62
2023/06/02 05:54:50;;;;;;;4.55;3.72;;;16.30;66.20;;;;;;4996609;28;20604;-62
2023/06/02 05:57:17;;;;;;;7.10;3.67;;;16.50;65.70;;;;;;4996073;28;20042;-61
2023/06/02 05:59:43;;;;;;;5.68;3.63;;;16.60;65.30;;;;;;4996213;28;20069;-63
2023/06/02 06:02:09;;;;;;;6.47;4.10;;;16.70;65.30;;;;;;5000547;28;20462;-62
2023/06/02 06:04:35;;;;;;;5.10;3.70;;;16.80;65.00;;;;;;4999264;28;20038;-62
2023/06/02 06:07:01;;;;;;;4.80;4.13;;;16.90;65.20;;;;;;4995368;28;20033;-63
2023/06/02 06:09:26;;;;;;;5.28;3.88;;;17.00;65.20;;;;;;4994542;28;20490;-62
2023/06/02 06:11:52;;;;;;;4.53;3.58;;;17.10;65.20;;;;;;4999061;28;20046;-62
2023/06/02 06:14:18;;;;;;;6.35;4.28;;;17.20;65.20;;;;;;4999372;28;20046;-63
2023/06/02 06:16:43;;;;;;;4.80;3.95;;;17.30;64.80;;;;;;4996773;28;20030;-63
2023/06/02 06:19:10;;;;;;;4.63;3.40;;;17.40;64.10;;;;;;4999272;28;20493;-62
2023/06/02 06:21:36;;;;;;;6.80;3.70;;;17.50;63.70;;;;;;4998233;28;20109;-62
2023/06/02 06:24:06;;;;;;;4.05;3.25;;;17.60;63.10;;;;;;4998075;28;20041;-63
2023/06/02 06:26:31;;;;;;;4.93;3.22;;;17.70;62.60;;;;;;4998114;28;20041;-62
2023/06/02 06:28:57;;;;;;;6.40;4.00;;;17.80;62.40;;;;;;4999541;28;20037;-61
2023/06/02 06:31:23;;;;;;;5.45;3.53;;;17.90;62.10;;;;;;4999219;28;20545;-63
2023/06/02 06:33:49;;;;;;;6.53;3.65;;;18.00;62.00;;;;;;4998895;28;20092;-62
2023/06/02 06:36:15;;;;;;;5.00;3.85;;;18.10;62.00;;;;;;4998358;28;20046;-63
2023/06/02 06:38:41;;;;;;;4.70;3.67;;;18.20;61.90;;;;;;4996932;28;20046;-63
2023/06/02 06:41:06;;;;;;;4.90;3.78;;;18.20;61.70;;;;;;4999516;28;20042;-63
2023/06/02 06:43:32;;;;;;;9.68;4.35;;;18.30;61.70;;;;;;4999719;28;20072;-63
2023/06/02 06:45:59;;;;;;;4.93;4.25;;;18.40;61.50;;;;;;5003788;28;20037;-62
2023/06/02 06:48:25;;;;;;;6.85;4.13;;;18.50;61.30;;;;;;5002627;28;20041;-63
2023/06/02 06:50:50;;;;;;;8.52;4.50;;;18.60;61.00;;;;;;5001831;28;20469;-63
2023/06/02 06:53:17;;;;;;;7.07;4.18;;;18.70;59.60;;;;;;4999634;28;20052;-62
2023/06/02 06:55:43;;;;;;;5.78;4.47;;;18.70;59.00;;;;;;5000404;28;20065;-62
2023/06/02 06:58:09;;;;;;;6.85;4.75;;;18.80;59.40;;;;;;5000363;28;20038;-62
2023/06/02 07:00:34;;;;;;;6.78;4.47;;;18.80;58.80;;;;;;4981379;28;20042;-63
2023/06/02 07:03:00;;;;;;;12.30;5.18;;;18.90;58.80;;;;;;5002169;28;20757;-63
2023/06/02 07:05:27;;;;;;;6.22;5.03;;;19.00;58.40;;;;;;5000021;28;20066;-63
2023/06/02 07:07:53;;;;;;;6.80;4.80;;;19.00;58.10;;;;;;4996979;28;20469;-63
2023/06/02 07:10:18;;;;;;;5.65;4.70;;;19.00;58.50;;;;;;5001135;28;20041;-63
2023/06/02 07:12:44;;;;;;;8.75;5.70;;;19.00;58.40;;;;;;4999040;28;20531;-63
2023/06/02 07:15:10;;;;;;;7.28;4.93;;;19.10;58.20;;;;;;5000810;28;20425;-62
2023/06/02 07:17:35;;;;;;;6.70;5.18;;;19.10;58.40;;;;;;5001520;28;20030;-61
2023/06/02 07:20:01;;;;;;;8.75;5.65;;;19.20;58.40;;;;;;5000840;28;20041;-63
2023/06/02 07:22:27;;;;;;;6.57;5.00;;;19.20;57.80;;;;;;4998374;28;20034;-62
2023/06/02 07:24:53;;;;;;;8.60;5.13;;;19.30;58.20;;;;;;5001851;28;20429;-62
2023/06/02 07:27:18;;;;;;;8.60;5.78;;;19.30;58.30;;;;;;4998371;28;20041;-61
2023/06/02 07:29:44;;;;;;;5.22;4.72;;;19.40;58.00;;;;;;4999032;28;20053;-62
2023/06/02 07:32:09;;;;;;;5.97;4.93;;;19.50;58.10;;;;;;5001324;28;20044;-63
2023/06/02 07:34:37;;;;;;;7.93;5.03;;;19.60;58.10;;;;;;5002195;28;20392;-62
2023/06/02 07:37:02;;;;;;;7.57;4.65;;;19.70;57.70;;;;;;5003633;28;20088;-62
2023/06/02 07:39:28;;;;;;;8.25;4.97;;;19.70;57.40;;;;;;5004093;28;20046;-62
2023/06/02 07:41:54;;;;;;;5.10;4.57;;;19.80;57.50;;;;;;5004351;28;20043;-62
2023/06/02 07:44:20;;;;;;;7.93;4.82;;;19.90;57.20;;;;;;5000949;28;20045;-62
2023/06/02 07:46:46;;;;;;;6.90;4.93;;;20.00;57.00;;;;;;4997603;28;20129;-62
2023/06/02 07:49:12;;;;;;;8.60;5.15;;;20.10;56.90;;;;;;4999838;28;20057;-62
2023/06/02 07:51:38;;;;;;;5.35;4.38;;;20.10;56.40;;;;;;4999830;28;20449;-61
2023/06/02 07:54:04;;;;;;;6.75;4.72;;;20.20;56.60;;;;;;5002381;28;20056;-62
2023/06/02 07:56:30;;;;;;;6.03;4.85;;;20.30;56.00;;;;;;5001576;28;20037;-61
2023/06/02 07:58:55;;;;;;;7.20;4.88;;;20.40;56.10;;;;;;5002439;28;20034;-61
2023/06/02 08:01:21;;;;;;;7.05;4.50;;;20.40;56.20;;;;;;5000082;28;20056;-62
2023/06/02 08:03:47;;;;;;;10.25;4.30;;;20.50;56.20;;;;;;5001418;28;20030;-62
2023/06/02 08:06:13;;;;;;;8.48;4.60;;;20.60;56.10;;;;;;5003218;28;20141;-62
2023/06/02 08:08:39;;;;;;;5.35;4.18;;;20.70;56.50;;;;;;5002854;28;20099;-61
2023/06/02 08:11:04;;;;;;;5.00;4.30;;;20.80;55.60;;;;;;5001253;28;20042;-63
2023/06/02 08:13:30;;;;;;;7.53;4.55;;;20.90;55.20;;;;;;5005331;28;20046;-61
2023/06/02 08:15:56;;;;;;;5.63;4.38;;;21.00;55.00;;;;;;5000506;28;20434;-62
2023/06/02 08:18:21;;;;;;;5.47;4.13;;;21.10;55.30;;;;;;5002697;28;20084;-62
2023/06/02 08:20:47;;;;;;;7.03;4.50;;;21.20;55.20;;;;;;4985023;28;20041;-62
2023/06/02 08:23:13;;;;;;;6.65;4.07;;;21.30;54.90;;;;;;5003514;28;20104;-63
2023/06/02 08:25:39;;;;;;;4.88;4.38;;;21.40;54.80;;;;;;4999715;28;20046;-62
2023/06/02 08:28:07;;;;;;;8.13;4.60;;;21.50;54.40;;;;;;5005189;28;20097;-62
2023/06/02 08:30:35;;;;;;;6.78;4.60;;;21.60;54.00;;;;;;4999121;28;20041;-61
2023/06/02 08:33:08;;;;;;;8.07;4.40;;;21.80;53.50;;;;;;5000923;28;20053;-62
2023/06/02 08:35:36;;;;;;;7.32;4.22;;;21.80;53.00;;;;;;4999596;28;20196;-61
2023/06/02 08:38:03;;;;;;;7.40;5.05;;;21.90;53.20;;;;;;5004702;28;20042;-62
2023/06/02 08:40:38;;;;;;;7.55;4.45;;;22.00;52.40;;;;;;5001251;28;20069;-61
2023/06/02 08:43:12;;;;;;;6.57;4.47;;;22.00;52.70;;;;;;5000808;28;20030;-63
2023/06/02 08:45:45;;;;;;;;;;;22.10;53.00;;;;;;4995860;28;20342;-62
2023/06/02 08:48:16;;;;;;;8.52;4.78;;;22.20;53.40;;;;;;5001865;28;20460;-63
2023/06/02 08:50:53;;;;;;;7.00;4.68;;;22.30;52.70;;;;;;5001253;28;20042;-61
2023/06/02 08:53:23;;;;;;;6.32;4.28;;;22.40;52.70;;;;;;5004668;28;20536;-63
2023/06/02 08:55:50;;;;;;;5.78;4.22;;;22.50;53.10;;;;;;5000856;28;20030;-64
2023/06/02 08:58:15;;;;;;;8.75;4.50;;;22.60;52.60;;;;;;5000770;28;20155;-64
2023/06/02 09:00:41;;;;;;;9.20;4.60;;;22.70;52.50;;;;;;5001863;28;20930;-63
2023/06/02 09:03:07;;;;;;;7.07;4.28;;;22.80;51.70;;;;;;5003301;28;20681;-63
2023/06/02 09:05:34;;;;;;;7.60;4.38;;;22.90;51.70;;;;;;5004048;28;20160;-63
2023/06/02 09:08:14;;;;;;;5.05;4.35;;;23.00;51.70;;;;;;4995419;28;20036;-62
2023/06/02 09:10:41;;;;;;;4.78;4.28;;;23.10;50.60;;;;;;4998854;28;20124;-63
2023/06/02 09:13:07;;;;;;;6.57;4.18;;;23.20;51.30;;;;;;5001879;28;20042;-63
2023/06/02 09:15:35;;;;;;;6.90;4.60;;;23.20;51.60;;;;;;5000018;28;20041;-63
2023/06/02 09:18:12;;;;;;;5.82;4.43;;;23.40;51.40;;;;;;5001074;28;20048;-63
2023/06/02 09:20:38;;;;;;;5.53;4.15;;;23.50;50.60;;;;;;5000409;28;20409;-63
2023/06/02 09:23:05;;;;;;;6.57;4.65;;;23.60;51.20;;;;;;5001249;28;20607;-63
2023/06/02 09:25:33;;;;;;;9.48;4.53;;;23.70;50.40;;;;;;4999559;28;20049;-63
2023/06/02 09:28:00;;;;;;;5.18;4.45;;;23.80;50.00;;;;;;5002450;28;20049;-63
2023/06/02 09:30:27;;;;;;;5.70;4.20;;;23.80;49.50;;;;;;5000912;28;20037;-63
2023/06/02 09:32:57;;;;;;;6.20;4.18;;;23.90;48.80;;;;;;5002229;28;20502;-63
2023/06/02 09:35:40;;;;;;;4.85;3.67;;;24.00;48.70;;;;;;5000299;28;20045;-63
2023/06/02 09:38:15;;;;;;;5.28;4.63;;;24.00;48.20;;;;;;5000879;28;20117;-63
2023/06/02 09:40:41;;;;;;;5.40;4.38;;;24.10;48.60;;;;;;4999916;28;20525;-63
2023/06/02 09:43:10;;;;;;;7.22;4.10;;;24.10;49.00;;;;;;5000641;28;20042;-64
2023/06/02 09:46:03;;;;;;;9.63;4.22;;;24.20;49.10;;;;;;4999566;28;20046;-64
2023/06/02 09:48:29;;;;;;;5.28;4.07;;;24.30;48.30;;;;;;4999161;28;20042;-64
2023/06/02 09:50:55;;;;;;;6.60;3.97;;;24.40;48.90;;;;;;5000698;28;20041;-63
2023/06/02 09:53:22;;;;;;;5.45;4.13;;;24.50;48.20;;;;;;5002273;28;20034;-63
2023/06/02 09:55:50;;;;;;;4.88;3.85;;;24.60;48.00;;;;;;4998902;28;20041;-63
2023/06/02 09:58:16;;;;;;;5.70;3.90;;;24.70;48.00;;;;;;4999401;28;20053;-63
2023/06/02 10:00:41;;;;;;;5.63;4.10;;;24.80;48.00;;;;;;4999453;28;20038;-64
2023/06/02 10:03:07;;;;;;;7.00;3.78;;;24.90;47.50;;;;;;4998347;28;20051;-62
2023/06/02 10:05:34;;;;;;;6.50;3.83;;;25.00;47.20;;;;;;5003446;28;20073;-64
2023/06/02 10:08:28;;;;;;;5.30;3.85;;;25.10;47.10;;;;;;4977470;28;20045;-64
2023/06/02 10:11:21;;;;;;;5.63;3.58;;;25.30;46.90;;;;;;5001923;28;20215;-63
2023/06/02 10:14:07;;;;;;;4.22;3.63;;;25.40;46.80;;;;;;5002973;28;20042;-64
2023/06/02 10:16:52;;;;;;;5.10;3.90;;;25.40;46.60;;;;;;5003114;28;20490;-63
2023/06/02 10:19:39;;;;;;;7.32;3.85;;;25.60;47.10;;;;;;5002997;28;20606;-63
2023/06/02 10:22:45;;;;;;;5.28;4.03;;;25.70;45.40;;;;;;5002073;28;20132;-63
2023/06/02 10:25:20;;;;;;;7.80;3.83;;;25.70;44.90;;;;;;5002383;28;20044;-63
2023/06/02 10:27:48;;;;;;;3.80;3.50;;;25.70;45.80;;;;;;5003503;28;20929;-64
2023/06/02 10:30:20;;;;;;;4.85;3.78;;;25.80;46.00;;;;;;5002063;28;20046;-63
2023/06/02 10:32:48;;;;;;;7.53;3.95;;;25.80;45.20;;;;;;5002736;28;20040;-64
2023/06/02 10:35:14;;;;;;;6.47;4.10;;;25.80;44.80;;;;;;5002129;28;20042;-61
2023/06/02 10:37:40;;;;;;;4.68;3.83;;;25.90;45.30;;;;;;5003553;28;20044;-64
2023/06/02 10:40:10;;;;;;;4.35;3.88;;;25.90;45.80;;;;;;5002618;28;20038;-63
2023/06/02 10:42:36;;;;;;;5.60;3.70;;;25.90;45.50;;;;;;5001221;28;20030;-64
2023/06/02 10:45:22;;;;;;;6.18;4.20;;;25.90;45.00;;;;;;5001146;28;20046;-63
2023/06/02 10:47:48;;;;;;;5.90;3.97;;;25.90;43.20;;;;;;5000429;28;20483;-63
2023/06/02 10:50:17;;;;;;;5.30;3.97;;;25.90;44.50;;;;;;5000575;28;20049;-63
2023/06/02 10:53:03;;;;;;;4.45;3.35;;;25.90;44.70;;;;;;5001677;28;20124;-63
2023/06/02 10:55:30;;;;;;;4.07;3.50;;;25.90;45.00;;;;;;5000934;28;20629;-64
2023/06/02 10:58:03;;;;;;;4.50;3.30;;;25.90;45.20;;;;;;5001240;28;20353;-64
2023/06/02 11:00:43;;;;;;;6.32;3.28;;;25.90;44.50;;;;;;4999892;28;20068;-63
2023/06/02 11:03:14;;;;;;;5.47;3.85;;;26.00;44.50;;;;;;5001159;28;20071;-63
2023/06/02 11:05:41;;;;;;;3.25;2.95;;;26.10;44.20;;;;;;5001715;28;20327;-64
2023/06/02 11:08:17;;;;;;;4.65;3.30;;;26.20;44.50;;;;;;5001762;28;20073;-63
2023/06/02 11:10:47;;;;;;;5.00;3.25;;;26.30;43.70;;;;;;4998404;28;20045;-63
2023/06/02 11:13:17;;;;;;;3.22;2.70;;;26.40;44.00;;;;;;5000158;28;20038;-63
2023/06/02 11:15:55;;;;;;;4.22;3.00;;;26.50;44.00;;;;;;5001465;28;20084;-63
2023/06/02 11:18:33;;;;;;;6.45;2.75;;;26.50;42.90;;;;;;5001480;28;20056;-63
2023/06/02 11:21:19;;;;;;;5.88;2.70;;;26.60;43.40;;;;;;4999376;28;20053;-64
2023/06/02 11:23:45;;;;;;;4.55;2.97;;;26.70;43.10;;;;;;5000605;28;20041;-63
2023/06/02 11:26:15;;;;;;;4.95;2.47;;;26.70;43.00;;;;;;5001063;28;20049;-63
2023/06/02 11:28:41;;;;;;;2.63;2.42;;;26.80;42.30;;;;;;5001106;28;20409;-64
2023/06/02 11:31:17;;;;;;;3.13;2.50;;;26.80;42.10;;;;;;5002276;28;20038;-63
2023/06/02 11:33:50;;;;;;;3.00;2.63;;;26.80;42.00;;;;;;5004601;28;20041;-64
2023/06/02 11:36:28;;;;;;;6.18;2.90;;;26.90;41.70;;;;;;4999817;28;20048;-63
2023/06/02 11:39:08;;;;;;;3.38;3.05;;;26.90;41.30;;;;;;5004195;28;20069;-63
2023/06/02 11:41:33;;;;;;;4.28;2.60;;;27.00;41.50;;;;;;5003474;28;20120;-63
2023/06/02 11:44:04;;;;;;;4.30;2.55;;;27.00;41.90;;;;;;5004255;28;20038;-63
2023/06/02 11:46:30;;;;;;;4.75;2.92;;;27.10;41.40;;;;;;4984567;28;20104;-64
2023/06/02 11:48:55;;;;;;;4.30;2.75;;;27.10;41.30;;;;;;5003426;28;20505;-64
2023/06/02 11:51:22;;;;;;;3.63;2.72;;;27.10;40.90;;;;;;5004275;28;20128;-64
2023/06/02 11:54:07;;;;;;;2.85;2.60;;;27.20;40.10;;;;;;5003967;28;20038;-64
2023/06/02 11:56:33;;;;;;;4.47;3.13;;;27.10;40.20;;;;;;5002932;28;20525;-64
2023/06/02 11:58:59;;;;;;;5.78;2.80;;;27.10;40.00;;;;;;5002383;28;20034;-64
2023/06/02 12:01:30;;;;;;;5.35;2.78;;;27.00;40.50;;;;;;5004181;28;20503;-64
2023/06/02 12:04:05;;;;;;;3.20;2.50;;;26.90;41.00;;;;;;5003939;28;20336;-64
2023/06/02 12:06:32;;;;;;;4.00;2.30;;;26.80;40.20;;;;;;5002694;28;20041;-63
2023/06/02 12:09:11;;;;;;;6.53;2.58;;;26.80;39.80;;;;;;5003968;28;20057;-63
2023/06/02 12:11:37;;;;;;;3.25;2.35;;;26.80;40.00;;;;;;5001660;28;20088;-63
2023/06/02 12:14:04;;;;;;;3.40;2.50;;;26.70;40.90;;;;;;5003809;28;20030;-63
2023/06/02 12:16:31;;;;;;;4.25;2.35;;;26.70;40.20;;;;;;5002406;28;20465;-63
2023/06/02 12:19:15;;;;;;;5.70;1.95;;;26.70;40.20;;;;;;5002046;28;20117;-63
2023/06/02 12:21:42;;;;;;;4.27;2.20;;;26.70;39.90;;;;;;5002251;28;20038;-64
2023/06/02 12:24:08;;;;;;;4.82;2.40;;;26.80;40.70;;;;;;5001713;28;20029;-63
2023/06/02 12:26:42;;;;;;;5.30;2.63;;;26.80;40.60;;;;;;5001212;28;20109;-64
2023/06/02 12:29:08;;;;;;;6.40;2.17;;;26.90;40.20;;;;;;5005545;28;20034;-63
2023/06/02 12:31:34;;;;;;;2.00;1.80;;;26.90;40.50;;;;;;5002136;28;20493;-64
2023/06/02 12:34:00;;;;;;;4.20;2.15;;;26.90;40.30;;;;;;5004884;28;20034;-63
2023/06/02 12:36:26;;;;;;;3.85;2.00;;;27.00;40.00;;;;;;5004821;28;20065;-64
2023/06/02 12:38:52;;;;;;;2.83;2.00;;;27.00;39.90;;;;;;5002613;28;20907;-63
2023/06/02 12:41:17;;;;;;;4.35;2.08;;;27.10;39.90;;;;;;5004202;28;20061;-63
2023/06/02 12:43:43;;;;;;;2.95;2.20;;;27.10;39.50;;;;;;5006720;28;20081;-63
2023/06/02 12:46:11;;;;;;;5.05;2.75;;;27.20;39.40;;;;;;5005931;28;20560;-64
2023/06/02 12:48:38;;;;;;;4.13;2.50;;;27.20;39.10;;;;;;5005038;28;20038;-64
2023/06/02 12:51:04;;;;;;;3.20;2.65;;;27.30;39.20;;;;;;5005646;28;20141;-63